Weather at Gothenburg-Landvetter Airport

Public forecast

Using degrees Celsius for public forecast. Weather courtesy of forecast.io.

Current aviation weather report (METAR) for Gothenburg-Landvetter Airport

Retrieved 2020/10/01 20:20 UTC (39 minutes ago):

ESGG 012020Z 08010KT CAVOK 12/09 Q1008

Aviation forecast (TAF) for Gothenburg-Landvetter Airport

Retrieved 2020/10/01 18:15 UTC (3 hours ago):

TAF TAF ESGG 011730Z 0118/0218 07010KT 9999 SCT025